Terminal Aerodrome Forecast
Issued by NWS

Home | Current Version | Previous Version | Text Only | Print | Product List | Glossary On
Versions: 1 2 3 4 5 6 7 8 9 10 11 12 13 14 15 16 17 18 19 20 21 22 23 24 25 26 27 28 29 30
000
FTAK31 PAFA 261143
TAFABT
TAF
PABT 261143Z 2612/2712 00000KT P6SM -SN OVC025
      TEMPO 2612/2614 2SM -SN
     FM261400 VRB03KT 2SM -SN BR OVC015
     FM270000 VRB03KT 5SM -SN BR OVC020=

USA.gov is the U.S. government's official web portal to all federal, state and local government web resources and services.